createdAt,value
2018-05-07T00:00:57.543Z,11.80
2018-05-07T00:02:00.020Z,11.80
2018-05-07T00:03:02.497Z,11.80
2018-05-07T00:04:04.954Z,11.90
2018-05-07T00:05:07.439Z,11.80
2018-05-07T00:06:10.106Z,11.80
2018-05-07T00:07:12.585Z,11.80
2018-05-07T00:08:15.048Z,11.80
2018-05-07T00:09:17.545Z,11.80
2018-05-07T00:10:19.996Z,11.80
2018-05-07T00:11:23.257Z,11.80
2018-05-07T00:12:25.723Z,11.80
2018-05-07T00:13:28.222Z,11.80
2018-05-07T00:14:31.523Z,11.70
2018-05-07T00:15:34.016Z,11.70
2018-05-07T00:16:37.233Z,11.70
2018-05-07T00:17:40.476Z,11.70
2018-05-07T00:18:43.720Z,11.70
2018-05-07T00:19:46.936Z,11.70
2018-05-07T00:20:49.404Z,11.70
2018-05-07T00:21:51.851Z,11.70
2018-05-07T00:22:54.335Z,11.70
2018-05-07T00:23:57.592Z,11.70
2018-05-07T00:25:00.079Z,11.60
2018-05-07T00:26:02.544Z,11.60
2018-05-07T00:27:05.066Z,11.60
2018-05-07T00:28:07.600Z,11.60
2018-05-07T00:29:10.076Z,11.60
2018-05-07T00:30:12.540Z,11.60
2018-05-07T00:31:15.044Z,11.70
2018-05-07T00:32:18.301Z,11.70
2018-05-07T00:33:21.663Z,11.60
2018-05-07T00:34:24.132Z,11.70
2018-05-07T00:35:26.727Z,11.70
2018-05-07T00:36:29.438Z,11.60
2018-05-07T00:37:32.692Z,11.60
2018-05-07T00:38:35.183Z,11.50
2018-05-07T00:39:37.707Z,11.60
2018-05-07T00:40:40.924Z,11.50
2018-05-07T00:41:43.495Z,11.50
2018-05-07T00:42:46.746Z,11.50
2018-05-07T00:43:50.449Z,11.40
2018-05-07T00:44:52.905Z,11.50
2018-05-07T00:45:56.136Z,11.40
2018-05-07T00:46:58.715Z,11.40
2018-05-07T00:48:01.217Z,11.40
2018-05-07T00:49:03.743Z,11.40
2018-05-07T00:50:06.315Z,11.40
2018-05-07T00:51:08.796Z,11.40
2018-05-07T00:52:11.268Z,11.40
2018-05-07T00:53:13.757Z,11.40
2018-05-07T00:54:16.222Z,11.40
2018-05-07T00:55:21.843Z,11.40
2018-05-07T00:56:24.414Z,11.40
2018-05-07T00:57:26.888Z,11.40
2018-05-07T00:58:29.363Z,11.40
2018-05-07T00:59:31.819Z,11.40
2018-05-07T01:00:34.287Z,11.40
2018-05-07T01:01:37.529Z,11.30
2018-05-07T01:02:40.056Z,11.30
2018-05-07T01:03:43.408Z,11.30
2018-05-07T01:04:45.882Z,11.30
2018-05-07T01:05:48.359Z,11.30
2018-05-07T01:06:50.838Z,11.30
2018-05-07T01:07:53.314Z,11.30
2018-05-07T01:08:55.815Z,11.30
2018-05-07T01:09:58.315Z,11.30
2018-05-07T01:11:01.537Z,11.30
2018-05-07T01:12:04.000Z,11.30
2018-05-07T01:13:07.251Z,11.20
2018-05-07T01:14:10.491Z,11.20
2018-05-07T01:15:13.735Z,11.20
2018-05-07T01:16:16.974Z,11.20
2018-05-07T01:17:20.207Z,11.20
2018-05-07T01:18:23.455Z,11.20
2018-05-07T01:19:25.915Z,11.20
2018-05-07T01:20:28.384Z,11.20
2018-05-07T01:21:30.955Z,11.20
2018-05-07T01:22:33.476Z,11.20
2018-05-07T01:23:35.964Z,11.20
2018-05-07T01:24:38.638Z,11.20
2018-05-07T01:25:41.100Z,11.20
2018-05-07T01:26:43.568Z,11.20
2018-05-07T01:27:46.029Z,11.10
2018-05-07T01:28:49.296Z,11.20
2018-05-07T01:29:51.759Z,11.20
2018-05-07T01:30:54.996Z,11.10
2018-05-07T01:31:58.222Z,11.10
2018-05-07T01:33:00.703Z,11.10
2018-05-07T01:34:03.177Z,11.10
2018-05-07T01:35:05.678Z,11.10
2018-05-07T01:36:08.878Z,11.10
2018-05-07T01:37:11.392Z,11.10
2018-05-07T01:38:13.920Z,11.10
2018-05-07T01:39:16.384Z,11.00
2018-05-07T01:40:18.879Z,11.00
2018-05-07T01:41:21.348Z,11.00
2018-05-07T01:42:24.676Z,11.00
2018-05-07T01:43:27.162Z,11.00
2018-05-07T01:44:30.373Z,11.00
2018-05-07T01:45:32.936Z,11.00
2018-05-07T01:46:35.407Z,10.90
2018-05-07T01:47:37.864Z,10.90
2018-05-07T01:48:41.116Z,10.90
2018-05-07T01:49:44.395Z,10.90
2018-05-07T01:50:46.897Z,10.90
2018-05-07T01:51:49.361Z,10.90
2018-05-07T01:52:51.828Z,10.90
2018-05-07T01:53:55.084Z,10.90
2018-05-07T01:54:57.548Z,10.80
2018-05-07T01:56:00.032Z,10.80
2018-05-07T01:57:03.284Z,10.80
2018-05-07T01:58:05.757Z,10.80
2018-05-07T01:59:08.270Z,10.80
2018-05-07T02:00:10.805Z,10.80
2018-05-07T02:01:13.996Z,10.70
2018-05-07T02:02:16.528Z,10.70
2018-05-07T02:03:19.035Z,10.70
2018-05-07T02:04:22.273Z,10.70
2018-05-07T02:05:25.567Z,10.80
2018-05-07T02:06:28.038Z,10.70
2018-05-07T02:07:31.283Z,10.80
2018-05-07T02:08:34.527Z,10.70
2018-05-07T02:09:37.005Z,10.80
2018-05-07T02:10:39.466Z,10.70
2018-05-07T02:11:42.760Z,10.70
2018-05-07T02:12:45.212Z,10.70
2018-05-07T02:13:47.780Z,10.70
2018-05-07T02:14:51.052Z,10.70
2018-05-07T02:15:53.529Z,10.70
2018-05-07T02:16:56.772Z,10.70
2018-05-07T02:17:59.995Z,10.70
2018-05-07T02:19:02.460Z,10.70
2018-05-07T02:20:04.920Z,10.60
2018-05-07T02:21:07.421Z,10.60
2018-05-07T02:22:09.896Z,10.60
2018-05-07T02:23:12.364Z,10.60
2018-05-07T02:24:14.868Z,10.60
2018-05-07T02:25:18.125Z,10.60
2018-05-07T02:26:21.456Z,10.60
2018-05-07T02:27:23.904Z,10.60
2018-05-07T02:28:26.372Z,10.60
2018-05-07T02:29:28.889Z,10.50
2018-05-07T02:30:31.384Z,10.50
2018-05-07T02:31:33.848Z,10.50
2018-05-07T02:32:36.344Z,10.50
2018-05-07T02:33:38.801Z,10.50
2018-05-07T02:34:42.083Z,10.50
2018-05-07T02:35:44.548Z,10.50
2018-05-07T02:36:47.006Z,10.50
2018-05-07T02:37:49.460Z,10.50
2018-05-07T02:38:51.938Z,10.50
2018-05-07T02:39:54.408Z,10.50
2018-05-07T02:40:57.663Z,10.50
2018-05-07T02:42:00.141Z,10.50
2018-05-07T02:43:02.609Z,10.50
2018-05-07T02:44:05.080Z,10.50
2018-05-07T02:45:07.565Z,10.50
2018-05-07T02:46:10.011Z,10.50
2018-05-07T02:47:12.480Z,10.40
2018-05-07T02:48:15.057Z,10.40
2018-05-07T02:49:17.533Z,10.40
2018-05-07T02:50:20.760Z,10.40
2018-05-07T02:51:23.224Z,10.40
2018-05-07T02:52:25.698Z,10.40
2018-05-07T02:53:28.156Z,10.40
2018-05-07T02:54:31.400Z,10.40
2018-05-07T02:55:34.657Z,10.40
2018-05-07T02:56:37.905Z,10.40
2018-05-07T02:57:40.371Z,10.40
2018-05-07T02:58:42.840Z,10.40
2018-05-07T02:59:46.100Z,10.40
2018-05-07T03:00:48.577Z,10.30
2018-05-07T03:01:51.042Z,10.40
2018-05-07T03:02:53.514Z,10.40
2018-05-07T03:03:55.979Z,10.40
2018-05-07T03:04:59.261Z,10.40
2018-05-07T03:06:01.737Z,10.30
2018-05-07T03:07:04.214Z,10.30
2018-05-07T03:08:06.704Z,10.30
2018-05-07T03:09:09.936Z,10.30
2018-05-07T03:10:13.299Z,10.30
2018-05-07T03:11:15.827Z,10.30
2018-05-07T03:12:18.332Z,10.30
2018-05-07T03:13:21.573Z,10.30
2018-05-07T03:14:24.815Z,10.30
2018-05-07T03:15:28.064Z,10.30
2018-05-07T03:16:30.537Z,10.30
2018-05-07T03:17:33.064Z,10.30
2018-05-07T03:18:35.498Z,10.30
2018-05-07T03:19:38.744Z,10.30
2018-05-07T03:20:41.208Z,10.30
2018-05-07T03:21:44.466Z,10.30
2018-05-07T03:22:46.947Z,10.30
2018-05-07T03:23:49.413Z,10.30
2018-05-07T03:24:51.909Z,10.30
2018-05-07T03:25:55.152Z,10.30
2018-05-07T03:26:57.624Z,10.30
2018-05-07T03:28:00.123Z,10.30
2018-05-07T03:29:03.353Z,10.30
2018-05-07T03:30:06.592Z,10.30
2018-05-07T03:31:09.859Z,10.20
2018-05-07T03:32:12.357Z,10.20
2018-05-07T03:33:15.600Z,10.20
2018-05-07T03:34:18.819Z,10.20
2018-05-07T03:35:21.305Z,10.20
2018-05-07T03:36:24.545Z,10.20
2018-05-07T03:37:27.061Z,10.20
2018-05-07T03:38:29.557Z,10.20
2018-05-07T03:39:32.778Z,10.20
2018-05-07T03:40:36.033Z,10.20
2018-05-07T03:41:38.648Z,10.20
2018-05-07T03:42:41.097Z,10.20
2018-05-07T03:43:44.383Z,10.20
2018-05-07T03:44:46.892Z,10.20
2018-05-07T03:45:49.386Z,10.20
2018-05-07T03:46:52.629Z,10.20
2018-05-07T03:47:55.097Z,10.20
2018-05-07T03:48:57.600Z,10.30
2018-05-07T03:50:00.091Z,10.30
2018-05-07T03:51:02.648Z,10.20
2018-05-07T03:52:05.874Z,10.20
2018-05-07T03:53:09.101Z,10.20
2018-05-07T03:54:11.565Z,10.20
2018-05-07T03:55:14.037Z,10.30
2018-05-07T03:56:16.496Z,10.30
2018-05-07T03:57:19.736Z,10.30
2018-05-07T03:58:22.976Z,10.30
2018-05-07T03:59:26.222Z,10.30
2018-05-07T04:00:29.477Z,10.30
2018-05-07T04:01:31.955Z,10.30
2018-05-07T04:02:34.424Z,10.30
2018-05-07T04:03:37.665Z,10.30
2018-05-07T04:04:41.321Z,10.30
2018-05-07T04:05:44.561Z,10.30
2018-05-07T04:06:47.031Z,10.30
2018-05-07T04:07:49.505Z,10.40
2018-05-07T04:08:52.730Z,10.40
2018-05-07T04:09:55.998Z,10.40
2018-05-07T04:10:59.236Z,10.40
2018-05-07T04:12:01.692Z,10.40
2018-05-07T04:13:04.164Z,10.40
2018-05-07T04:14:07.390Z,10.40
2018-05-07T04:15:09.900Z,10.40
2018-05-07T04:16:12.384Z,10.40
2018-05-07T04:17:26.697Z,10.40
2018-05-07T04:18:41.185Z,10.40
2018-05-07T04:19:55.463Z,10.40
2018-05-07T04:21:10.501Z,10.50
2018-05-07T04:22:25.809Z,10.50
2018-05-07T04:23:40.193Z,10.50
2018-05-07T04:24:42.736Z,10.50
2018-05-07T04:25:45.226Z,10.50
2018-05-07T04:26:47.776Z,10.60
2018-05-07T04:27:50.660Z,10.60
2018-05-07T04:28:53.128Z,10.60
2018-05-07T04:29:55.584Z,10.60
2018-05-07T04:30:58.065Z,10.60
2018-05-07T04:32:01.360Z,10.70
2018-05-07T04:33:03.844Z,10.70
2018-05-07T04:34:06.317Z,10.80
2018-05-07T04:35:08.780Z,10.80
2018-05-07T04:36:12.035Z,10.80
2018-05-07T04:37:15.284Z,10.90
2018-05-07T04:38:17.762Z,10.90
2018-05-07T04:39:20.330Z,10.90
2018-05-07T04:40:23.588Z,11.00
2018-05-07T04:41:26.123Z,10.90
2018-05-07T04:42:28.645Z,11.00
2018-05-07T04:43:31.191Z,11.00
2018-05-07T04:44:33.677Z,11.00
2018-05-07T04:45:36.182Z,11.00
2018-05-07T04:46:38.735Z,11.10
2018-05-07T04:47:41.212Z,11.10
2018-05-07T04:48:43.695Z,11.20
2018-05-07T04:49:46.140Z,11.20
2018-05-07T04:50:48.625Z,11.20
2018-05-07T04:51:51.844Z,11.40
2018-05-07T04:52:54.410Z,11.40
2018-05-07T04:53:56.919Z,11.40
2018-05-07T04:54:59.496Z,11.40
2018-05-07T04:56:01.977Z,11.50
2018-05-07T04:57:04.498Z,11.50
2018-05-07T04:58:07.037Z,11.60
2018-05-07T04:59:09.590Z,11.60
2018-05-07T05:00:12.070Z,11.60
2018-05-07T05:01:15.352Z,11.60
2018-05-07T05:02:17.825Z,11.60
2018-05-07T05:03:20.279Z,11.70
2018-05-07T05:04:22.743Z,11.70
2018-05-07T05:05:25.205Z,11.80
2018-05-07T05:06:28.496Z,11.80
2018-05-07T05:07:30.964Z,11.80
2018-05-07T05:08:34.317Z,12.00
2018-05-07T05:09:37.550Z,12.00
2018-05-07T05:10:40.035Z,12.00
2018-05-07T05:11:42.495Z,12.10
2018-05-07T05:12:45.568Z,12.10
2018-05-07T05:13:48.030Z,12.20
2018-05-07T05:14:50.525Z,12.30
2018-05-07T05:15:53.016Z,12.30
2018-05-07T05:16:55.480Z,12.30
2018-05-07T05:17:57.979Z,12.30
2018-05-07T05:19:01.207Z,12.40
2018-05-07T05:20:03.751Z,12.40
2018-05-07T05:21:06.238Z,12.40
2018-05-07T05:22:08.708Z,12.50
2018-05-07T05:23:11.931Z,12.60
2018-05-07T05:24:15.172Z,12.70
2018-05-07T05:25:17.636Z,12.60
2018-05-07T05:26:20.141Z,12.70
2018-05-07T05:27:22.623Z,12.70
2018-05-07T05:28:25.093Z,12.80
2018-05-07T05:29:27.545Z,12.90
2018-05-07T05:30:30.050Z,12.90
2018-05-07T05:31:32.545Z,13.00
2018-05-07T05:32:35.798Z,13.00
2018-05-07T05:33:39.041Z,13.10
2018-05-07T05:34:42.274Z,13.20
2018-05-07T05:35:44.728Z,13.20
2018-05-07T05:36:47.219Z,13.30
2018-05-07T05:37:50.486Z,13.40
2018-05-07T05:38:52.936Z,13.40
2018-05-07T05:39:55.426Z,13.40
2018-05-07T05:40:58.643Z,13.50
2018-05-07T05:42:01.310Z,13.50
2018-05-07T05:43:03.820Z,13.50
2018-05-07T05:44:07.065Z,13.60
2018-05-07T05:45:10.332Z,13.70
2018-05-07T05:46:12.821Z,13.70
2018-05-07T05:47:15.273Z,13.70
2018-05-07T05:48:17.746Z,13.80
2018-05-07T05:49:20.200Z,13.80
2018-05-07T05:50:23.443Z,14.00
2018-05-07T05:51:26.696Z,14.00
2018-05-07T05:52:29.913Z,14.20
2018-05-07T05:53:32.372Z,14.10
2018-05-07T05:54:34.845Z,14.20
2018-05-07T05:55:37.403Z,14.30
2018-05-07T05:56:40.639Z,14.40
2018-05-07T05:57:43.863Z,14.50
2018-05-07T05:58:46.330Z,14.50
2018-05-07T05:59:48.805Z,14.60
2018-05-07T06:00:51.270Z,14.70
2018-05-07T06:01:54.514Z,15.00
2018-05-07T06:02:56.984Z,15.00
2018-05-07T06:03:59.506Z,15.10
2018-05-07T06:05:01.940Z,15.30
2018-05-07T06:06:04.408Z,15.50
2018-05-07T06:07:07.666Z,15.80
2018-05-07T06:08:10.152Z,15.80
2018-05-07T06:09:12.723Z,15.90
2018-05-07T06:10:15.210Z,16.30
2018-05-07T06:11:18.468Z,17.00
2018-05-07T06:12:21.715Z,17.40
2018-05-07T06:13:24.928Z,17.80
2018-05-07T06:14:27.535Z,17.80
2018-05-07T06:15:29.915Z,18.20
2018-05-07T06:16:32.397Z,18.60
2018-05-07T06:17:34.864Z,18.90
2018-05-07T06:18:37.333Z,19.20
2018-05-07T06:19:39.812Z,19.60
2018-05-07T06:20:42.276Z,19.90
2018-05-07T06:21:44.748Z,20.20
2018-05-07T06:22:48.003Z,20.90
2018-05-07T06:23:50.483Z,20.90
2018-05-07T06:24:52.945Z,21.20
2018-05-07T06:25:56.178Z,21.80
2018-05-07T06:26:59.439Z,22.10
2018-05-07T06:28:01.939Z,22.10
2018-05-07T06:29:04.446Z,22.30
2018-05-07T06:30:06.941Z,22.40
2018-05-07T06:31:09.420Z,22.20
2018-05-07T06:32:12.800Z,22.70
2018-05-07T06:33:15.263Z,22.70
2018-05-07T06:34:17.807Z,22.90
2018-05-07T06:35:20.282Z,23.10
2018-05-07T06:36:22.748Z,23.40
2018-05-07T06:37:25.236Z,23.60
2018-05-07T06:38:27.698Z,23.60
2018-05-07T06:39:30.938Z,24.00
2018-05-07T06:40:33.462Z,24.00
2018-05-07T06:41:36.049Z,24.20
2018-05-07T06:42:38.564Z,24.30
2018-05-07T06:43:41.032Z,24.30
2018-05-07T06:44:43.502Z,24.40
2018-05-07T06:45:46.062Z,24.30
2018-05-07T06:46:48.525Z,24.30
2018-05-07T06:47:51.001Z,24.50
2018-05-07T06:48:53.489Z,24.40
2018-05-07T06:49:56.781Z,24.60
2018-05-07T06:50:59.265Z,24.50
2018-05-07T06:52:02.626Z,24.80
2018-05-07T06:53:05.156Z,24.80
2018-05-07T06:54:07.619Z,24.60
2018-05-07T06:55:10.097Z,24.80
2018-05-07T06:56:12.733Z,24.80
2018-05-07T06:57:15.242Z,24.90
2018-05-07T06:58:17.724Z,25.10
2018-05-07T06:59:20.222Z,25.10
2018-05-07T07:00:22.737Z,24.80
2018-05-07T07:01:25.252Z,24.80
2018-05-07T07:02:27.789Z,24.80
2018-05-07T07:03:30.999Z,25.00
2018-05-07T07:04:34.284Z,24.90
2018-05-07T07:05:36.739Z,24.90
2018-05-07T07:06:39.200Z,25.20
2018-05-07T07:07:42.458Z,25.70
2018-05-07T07:08:44.944Z,25.70
2018-05-07T07:09:48.220Z,26.30
2018-05-07T07:10:51.440Z,26.30
2018-05-07T07:11:54.679Z,26.30
2018-05-07T07:12:57.985Z,26.30
2018-05-07T07:14:00.599Z,26.30
2018-05-07T07:15:03.054Z,26.40
2018-05-07T07:16:05.533Z,26.40
2018-05-07T07:17:08.139Z,26.30
2018-05-07T07:18:11.442Z,26.20
2018-05-07T07:19:13.950Z,26.20
2018-05-07T07:20:16.434Z,26.50
2018-05-07T07:21:19.673Z,26.80
2018-05-07T07:22:22.936Z,26.90
2018-05-07T07:23:25.492Z,26.90
2018-05-07T07:24:27.961Z,27.20
2018-05-07T07:25:31.218Z,27.70
2018-05-07T07:26:34.447Z,27.30
2018-05-07T07:27:37.717Z,27.00
2018-05-07T07:28:40.247Z,27.00
2018-05-07T07:29:42.717Z,26.90
2018-05-07T07:30:45.173Z,27.20
2018-05-07T07:31:48.433Z,27.50
2018-05-07T07:32:50.928Z,27.50
2018-05-07T07:33:54.202Z,27.40
2018-05-07T07:34:57.402Z,27.30
2018-05-07T07:35:59.878Z,27.30
2018-05-07T07:37:02.413Z,27.20
2018-05-07T07:38:04.897Z,27.00
2018-05-07T07:39:08.130Z,27.30
2018-05-07T07:40:11.879Z,27.00
2018-05-07T07:41:14.445Z,27.00
2018-05-07T07:42:16.980Z,27.00
2018-05-07T07:43:19.500Z,27.00
2018-05-07T07:44:21.993Z,27.10
2018-05-07T07:45:25.243Z,27.00
2018-05-07T07:46:28.489Z,27.00
2018-05-07T07:47:32.597Z,27.00
2018-05-07T07:48:35.091Z,27.00
2018-05-07T07:49:37.576Z,26.90
2018-05-07T07:50:40.829Z,27.50
2018-05-07T07:51:44.061Z,27.50
2018-05-07T07:52:48.010Z,27.50
2018-05-07T07:53:50.530Z,27.50
2018-05-07T07:54:52.952Z,27.90
2018-05-07T07:55:55.420Z,27.90
2018-05-07T07:56:58.650Z,27.50
2018-05-07T07:58:01.914Z,27.50
2018-05-07T07:59:04.449Z,27.50
2018-05-07T08:00:06.974Z,27.60
2018-05-07T08:01:09.439Z,27.50
2018-05-07T08:02:12.563Z,27.60
2018-05-07T08:03:15.078Z,27.20
2018-05-07T08:04:17.572Z,27.20
2018-05-07T08:05:20.858Z,26.80
2018-05-07T08:06:23.335Z,26.80
2018-05-07T08:07:26.612Z,26.50
2018-05-07T08:08:29.143Z,26.50
2018-05-07T08:09:31.856Z,26.50
2018-05-07T08:10:34.691Z,26.50
2018-05-07T08:11:37.196Z,26.60
2018-05-07T08:12:40.433Z,26.50
2018-05-07T08:13:43.792Z,26.30
2018-05-07T08:14:46.510Z,26.30
2018-05-07T08:15:49.008Z,26.20
2018-05-07T08:16:51.473Z,25.90
2018-05-07T08:17:54.018Z,25.50
2018-05-07T08:18:56.511Z,25.10
2018-05-07T08:19:59.768Z,24.70
2018-05-07T08:21:02.244Z,24.70
2018-05-07T08:22:04.728Z,24.40
2018-05-07T08:23:07.198Z,24.30
2018-05-07T08:24:09.742Z,24.50
2018-05-07T08:25:12.222Z,24.50
2018-05-07T08:26:14.711Z,24.60
2018-05-07T08:27:17.309Z,24.80
2018-05-07T08:28:21.439Z,25.40
2018-05-07T08:29:23.905Z,25.40
2018-05-07T08:30:26.478Z,25.40
2018-05-07T08:31:28.995Z,25.30
2018-05-07T08:32:31.478Z,25.10
2018-05-07T08:33:33.969Z,25.20
2018-05-07T08:34:36.469Z,25.00
2018-05-07T08:35:38.938Z,25.10
2018-05-07T08:36:41.517Z,25.00
2018-05-07T08:37:44.200Z,24.90
2018-05-07T08:38:47.452Z,24.60
2018-05-07T08:39:49.936Z,24.60
2018-05-07T08:40:53.035Z,24.50
2018-05-07T08:41:56.253Z,24.50
2018-05-07T08:42:58.714Z,24.50
2018-05-07T08:44:01.270Z,24.50
2018-05-07T08:45:03.719Z,24.40
2018-05-07T08:46:06.214Z,24.40
2018-05-07T08:47:08.728Z,24.50
2018-05-07T08:48:11.299Z,24.20
2018-05-07T08:49:14.556Z,24.10
2018-05-07T08:50:17.813Z,23.90
2018-05-07T08:51:20.276Z,23.80
2018-05-07T08:52:22.761Z,23.80
2018-05-07T08:53:26.108Z,23.60
2018-05-07T08:54:29.410Z,23.50
2018-05-07T08:55:31.890Z,23.40
2018-05-07T08:56:34.348Z,23.40
2018-05-07T08:57:36.890Z,23.30
2018-05-07T08:58:39.363Z,23.30
2018-05-07T08:59:41.870Z,23.30
2018-05-07T09:00:45.164Z,23.10
2018-05-07T09:01:48.582Z,23.10
2018-05-07T09:02:51.057Z,23.10
2018-05-07T09:03:53.573Z,23.10
2018-05-07T09:04:56.036Z,23.00
2018-05-07T09:05:59.276Z,22.80
2018-05-07T09:07:02.497Z,22.50
2018-05-07T09:08:05.062Z,22.50
2018-05-07T09:09:07.475Z,22.50
2018-05-07T09:10:09.977Z,22.40
2018-05-07T09:11:12.510Z,22.30
2018-05-07T09:12:14.962Z,22.30
2018-05-07T09:13:17.435Z,22.30
2018-05-07T09:14:20.021Z,22.30
2018-05-07T09:15:22.516Z,22.40
2018-05-07T09:16:25.077Z,22.40
2018-05-07T09:17:27.756Z,22.40
2018-05-07T09:18:31.035Z,22.50
2018-05-07T09:19:34.286Z,22.50
2018-05-07T09:20:36.811Z,22.50
2018-05-07T09:21:39.407Z,22.60
2018-05-07T09:22:41.901Z,22.60
2018-05-07T09:23:44.409Z,22.60
2018-05-07T09:24:46.979Z,22.40
2018-05-07T09:25:49.440Z,22.30
2018-05-07T09:28:01.667Z,22.30
2018-05-07T09:29:04.161Z,22.30
2018-05-07T09:30:07.383Z,22.20
2018-05-07T09:31:09.865Z,22.10
2018-05-07T09:32:12.334Z,22.10
2018-05-07T09:33:14.796Z,22.10
2018-05-07T09:34:17.287Z,22.10
2018-05-07T09:35:19.815Z,22.10
2018-05-07T09:36:22.348Z,22.10
2018-05-07T09:37:24.886Z,22.20
2018-05-07T09:38:28.152Z,22.30
2018-05-07T09:39:30.646Z,22.30
2018-05-07T09:40:33.168Z,22.30
2018-05-07T09:41:36.408Z,22.10
2018-05-07T09:42:39.041Z,22.10
2018-05-07T09:43:41.645Z,22.10
2018-05-07T09:44:44.952Z,22.10
2018-05-07T09:45:47.481Z,22.10
2018-05-07T09:46:49.965Z,22.10
2018-05-07T09:47:52.486Z,22.10
2018-05-07T09:48:56.833Z,22.10
2018-05-07T09:50:00.275Z,22.10
2018-05-07T09:51:02.819Z,22.10
2018-05-07T09:52:05.294Z,22.00
2018-05-07T09:53:07.847Z,22.00
2018-05-07T09:54:10.385Z,22.00
2018-05-07T09:55:13.141Z,22.00
2018-05-07T09:56:15.613Z,22.10
2018-05-07T09:57:18.132Z,22.10
2018-05-07T09:58:20.640Z,22.10
2018-05-07T09:59:23.225Z,22.10
2018-05-07T10:00:31.535Z,22.20
2018-05-07T10:01:34.022Z,22.20
2018-05-07T10:02:37.262Z,22.20
2018-05-07T10:03:39.826Z,22.20
2018-05-07T10:04:42.404Z,22.20
2018-05-07T10:05:45.720Z,22.30
2018-05-07T10:06:48.237Z,22.30
2018-05-07T10:07:50.768Z,22.30
2018-05-07T10:08:53.246Z,22.30
2018-05-07T10:09:56.555Z,22.40
2018-05-07T10:11:01.092Z,22.40
2018-05-07T10:12:03.591Z,22.40
2018-05-07T10:13:06.850Z,22.40
2018-05-07T10:14:09.331Z,22.40
2018-05-07T10:15:13.512Z,22.50
2018-05-07T10:16:16.811Z,22.40
2018-05-07T10:17:19.288Z,22.40
2018-05-07T10:18:22.543Z,22.30
2018-05-07T10:19:25.030Z,22.30
2018-05-07T10:20:27.517Z,22.30
2018-05-07T10:21:29.977Z,22.20
2018-05-07T10:22:32.447Z,22.20
2018-05-07T10:23:35.007Z,22.30
2018-05-07T10:24:38.186Z,22.30
2018-05-07T10:25:40.732Z,22.30
2018-05-07T10:26:43.365Z,22.30
2018-05-07T10:27:45.944Z,22.40
2018-05-07T10:28:48.455Z,22.30
2018-05-07T10:29:51.037Z,22.30
2018-05-07T10:30:53.542Z,22.20
2018-05-07T10:31:56.163Z,22.10
2018-05-07T10:32:58.655Z,22.00
2018-05-07T10:34:01.149Z,22.10
2018-05-07T10:35:03.784Z,22.10
2018-05-07T10:36:06.327Z,22.00
2018-05-07T10:37:08.845Z,22.10
2018-05-07T10:38:11.376Z,22.10
2018-05-07T10:39:13.865Z,22.10
2018-05-07T10:40:17.133Z,22.20
2018-05-07T10:41:19.645Z,22.20
2018-05-07T10:42:22.110Z,22.30
2018-05-07T10:43:24.595Z,22.30
2018-05-07T10:44:27.863Z,22.40
2018-05-07T10:45:30.374Z,22.40
2018-05-07T10:46:32.836Z,22.50
2018-05-07T10:47:35.322Z,22.40
2018-05-07T10:48:37.786Z,22.40
2018-05-07T10:49:40.359Z,22.40
2018-05-07T10:50:43.626Z,22.40
2018-05-07T10:51:46.106Z,22.40
2018-05-07T10:52:48.655Z,22.50
2018-05-07T10:53:52.008Z,22.50
2018-05-07T10:54:54.472Z,22.50
2018-05-07T10:55:56.962Z,22.50
2018-05-07T10:56:59.472Z,22.50
2018-05-07T10:58:02.728Z,22.40
2018-05-07T10:59:05.304Z,22.40
2018-05-07T11:00:07.892Z,22.40
2018-05-07T11:01:10.372Z,22.40
2018-05-07T11:02:13.693Z,22.40
2018-05-07T11:03:16.377Z,22.30
2018-05-07T11:04:18.875Z,22.40
2018-05-07T11:05:21.351Z,22.40
2018-05-07T11:06:24.641Z,22.30
2018-05-07T11:07:27.143Z,22.20
2018-05-07T11:08:29.652Z,22.10
2018-05-07T11:09:32.133Z,22.10
2018-05-07T11:10:35.502Z,22.20
2018-05-07T11:11:38.025Z,22.20
2018-05-07T11:12:40.508Z,22.20
2018-05-07T11:13:43.018Z,22.30
2018-05-07T11:14:45.520Z,22.20
2018-05-07T11:15:48.009Z,22.20
2018-05-07T11:16:51.234Z,22.20
2018-05-07T11:17:53.770Z,22.20
2018-05-07T11:18:56.991Z,22.30
2018-05-07T11:19:59.668Z,22.30
2018-05-07T11:21:02.148Z,22.30
2018-05-07T11:22:04.616Z,22.30
2018-05-07T11:23:07.137Z,22.30
2018-05-07T11:24:10.426Z,22.30
2018-05-07T11:25:12.927Z,22.30
2018-05-07T11:26:15.392Z,22.30
2018-05-07T11:27:17.961Z,22.20
2018-05-07T11:28:20.437Z,22.20
2018-05-07T11:29:22.896Z,22.20
2018-05-07T11:30:25.398Z,22.20
2018-05-07T11:31:27.875Z,22.30
2018-05-07T11:32:30.366Z,22.30
2018-05-07T11:33:33.586Z,22.30
2018-05-07T11:34:36.082Z,22.30
2018-05-07T11:35:38.600Z,22.40
2018-05-07T11:36:41.128Z,22.40
2018-05-07T11:37:43.594Z,22.40
2018-05-07T11:38:46.848Z,22.40
2018-05-07T11:39:49.326Z,22.40
2018-05-07T11:40:51.927Z,22.20
2018-05-07T11:41:54.445Z,22.20
2018-05-07T11:42:57.674Z,22.30
2018-05-07T11:44:00.911Z,22.30
2018-05-07T11:45:04.152Z,22.40
2018-05-07T11:46:07.397Z,22.40
2018-05-07T11:47:10.682Z,22.40
2018-05-07T11:48:13.113Z,22.40
2018-05-07T11:49:15.653Z,22.50
2018-05-07T11:50:18.120Z,22.50
2018-05-07T11:51:21.480Z,22.50
2018-05-07T11:52:23.947Z,22.50
2018-05-07T11:53:26.406Z,22.40
2018-05-07T11:54:29.653Z,22.50
2018-05-07T11:55:32.952Z,22.40
2018-05-07T11:56:35.427Z,22.40
2018-05-07T11:57:37.911Z,22.40
2018-05-07T11:58:40.388Z,22.40
2018-05-07T11:59:42.856Z,22.40
2018-05-07T12:00:45.460Z,22.30
2018-05-07T12:01:47.935Z,22.30
2018-05-07T12:02:51.246Z,22.30
2018-05-07T12:03:53.845Z,22.30
2018-05-07T12:04:56.366Z,22.30
2018-05-07T12:06:00.351Z,22.30
2018-05-07T12:07:02.819Z,22.40
2018-05-07T12:08:05.354Z,22.40
2018-05-07T12:09:07.750Z,22.40
2018-05-07T12:10:10.209Z,22.40
2018-05-07T12:11:13.449Z,22.40
2018-05-07T12:12:16.677Z,22.50
2018-05-07T12:13:19.917Z,22.50
2018-05-07T12:14:22.383Z,22.50
2018-05-07T12:15:24.877Z,22.60
2018-05-07T12:16:28.149Z,22.60
2018-05-07T12:17:30.623Z,22.60
2018-05-07T12:18:33.180Z,22.70
2018-05-07T12:19:36.412Z,22.70
2018-05-07T12:20:39.699Z,22.70
2018-05-07T12:21:42.203Z,22.70
2018-05-07T12:22:44.666Z,22.70
2018-05-07T12:23:47.221Z,22.60
2018-05-07T12:24:49.685Z,22.60
2018-05-07T12:25:52.158Z,22.60
2018-05-07T12:26:55.060Z,22.60
2018-05-07T12:27:57.517Z,22.60
2018-05-07T12:29:00.018Z,22.60
2018-05-07T12:30:02.502Z,22.70
2018-05-07T12:31:05.011Z,22.70
2018-05-07T12:32:08.247Z,22.80
2018-05-07T12:33:10.815Z,22.70
2018-05-07T12:34:13.329Z,22.80
2018-05-07T12:35:15.860Z,22.80
2018-05-07T12:36:18.371Z,22.80
2018-05-07T12:37:20.838Z,22.80
2018-05-07T12:38:23.333Z,22.80
2018-05-07T12:39:25.852Z,22.80
2018-05-07T12:41:37.336Z,22.80
2018-05-07T12:42:40.557Z,22.70
2018-05-07T12:43:43.237Z,22.70
2018-05-07T12:44:45.748Z,22.70
2018-05-07T12:45:48.263Z,22.70
2018-05-07T12:46:51.617Z,22.80
2018-05-07T12:47:54.216Z,22.80
2018-05-07T12:48:56.723Z,22.80
2018-05-07T12:49:59.187Z,22.80
2018-05-07T12:51:02.425Z,22.80
2018-05-07T12:52:05.671Z,22.80
2018-05-07T12:53:08.140Z,22.80
2018-05-07T12:54:10.605Z,22.70
2018-05-07T12:55:13.871Z,22.60
2018-05-07T12:56:16.451Z,22.60
2018-05-07T12:57:19.023Z,22.60
2018-05-07T12:58:22.276Z,22.70
2018-05-07T12:59:24.803Z,22.70
2018-05-07T13:00:27.312Z,22.70
2018-05-07T13:01:29.789Z,22.80
2018-05-07T13:02:32.255Z,22.80
2018-05-07T13:03:35.401Z,22.80
2018-05-07T13:04:38.651Z,22.80
2018-05-07T13:05:41.765Z,22.80
2018-05-07T13:06:45.012Z,22.80
2018-05-07T13:07:48.303Z,22.80
2018-05-07T13:08:50.781Z,22.70
2018-05-07T13:09:53.996Z,22.90
2018-05-07T13:10:56.461Z,22.90
2018-05-07T13:11:58.927Z,22.90
2018-05-07T13:13:01.501Z,22.90
2018-05-07T13:14:04.649Z,23.00
2018-05-07T13:15:07.904Z,23.10
2018-05-07T13:16:10.446Z,23.00
2018-05-07T13:17:12.942Z,23.00
2018-05-07T13:18:15.476Z,23.00
2018-05-07T13:19:17.941Z,23.00
2018-05-07T13:20:20.427Z,23.10
2018-05-07T13:21:22.899Z,23.10
2018-05-07T13:22:25.380Z,23.10
2018-05-07T13:23:27.896Z,23.10
2018-05-07T13:24:30.388Z,23.10
2018-05-07T13:25:32.852Z,23.10
2018-05-07T13:26:35.703Z,23.10
2018-05-07T13:27:38.169Z,23.10
2018-05-07T13:28:40.676Z,23.10
2018-05-07T13:29:43.177Z,23.10
2018-05-07T13:30:45.644Z,23.10
2018-05-07T13:31:48.125Z,23.10